Time;durP1;ratioP1;P1;durP2;ratioP2;P2;SDS_P1;SDS_P2;PMS_P1;PMS_P2;Temp;Humidity;BMP_temperature;BMP_pressure;BME280_temperature;BME280_humidity;BME280_pressure;Samples;Min_cycle;Max_cycle;Signal;HPM_P1;HPM_P2
2021/08/01 00:01:27;;;;;;;7.57;5.45;;;;;;;18.96;54.88;100859.09;4947902;28;113769;-71
2021/08/01 00:03:54;;;;;;;9.60;5.63;;;;;;;18.95;55.04;100856.50;4946166;28;122931;-71
2021/08/01 00:06:25;;;;;;;9.73;6.15;;;;;;;18.96;55.22;100863.59;4949339;28;123345;-71
2021/08/01 00:08:54;;;;;;;7.03;5.38;;;;;;;18.97;55.02;100859.97;4944648;28;115043;-72
2021/08/01 00:11:21;;;;;;;10.30;6.00;;;;;;;18.95;55.14;100856.50;4939250;28;113463;-72
2021/08/01 00:13:48;;;;;;;8.60;5.97;;;;;;;18.96;55.17;100858.25;4942281;28;123323;-72
2021/08/01 00:16:15;;;;;;;8.02;5.72;;;;;;;18.96;55.28;100853.72;4926339;28;123394;-73
2021/08/01 00:18:43;;;;;;;8.82;5.93;;;;;;;18.96;55.23;100863.59;4946608;28;113659;-71
2021/08/01 00:21:10;;;;;;;9.65;6.18;;;;;;;18.95;55.34;100857.38;4942363;28;114187;-71
2021/08/01 00:23:37;;;;;;;10.82;6.38;;;;;;;18.96;55.28;100863.59;4940527;28;124519;-72
2021/08/01 00:26:04;;;;;;;10.65;6.70;;;;;;;18.95;55.42;100861.88;4928129;28;122990;-71
2021/08/01 00:28:31;;;;;;;10.10;6.30;;;;;;;18.94;55.45;100860.19;4945717;28;113067;-71
2021/08/01 00:30:59;;;;;;;10.82;6.88;;;;;;;18.90;55.60;100858.75;4944562;28;114106;-71
2021/08/01 00:33:27;;;;;;;11.48;7.53;;;;;;;18.89;55.51;100851.66;4944971;28;124511;-72
2021/08/01 00:35:56;;;;;;;8.73;6.85;;;;;;;18.86;55.49;100853.59;4936589;28;124093;-72
2021/08/01 00:38:23;;;;;;;10.95;7.00;;;;;;;18.85;55.83;100851.91;4939919;28;113259;-73
2021/08/01 00:40:50;;;;;;;8.65;6.57;;;;;;;18.83;55.97;100844.94;4938125;28;114756;-72
2021/08/01 00:43:17;;;;;;;9.15;6.82;;;;;;;18.81;56.08;100850.44;4925550;28;123668;-71
2021/08/01 00:45:45;;;;;;;10.07;6.82;;;;;;;18.82;56.09;100857.50;4945438;28;124300;-72
2021/08/01 00:48:13;;;;;;;11.57;6.85;;;;;;;18.82;55.96;100852.16;4957038;28;114435;-72
2021/08/01 00:50:43;;;;;;;8.90;6.32;;;;;;;18.80;56.18;100848.72;4943646;28;112605;-72
2021/08/01 00:53:11;;;;;;;9.18;6.72;;;;;;;18.79;56.09;100846.97;4943698;28;124515;-73
2021/08/01 00:55:40;;;;;;;9.57;6.40;;;;;;;18.80;56.28;100848.72;4940844;28;124018;-72
2021/08/01 00:58:08;;;;;;;9.13;6.28;;;;;;;18.80;56.08;100848.72;4946475;28;113650;-71
2021/08/01 01:03:18;;;;;;;9.27;6.75;;;;;;;18.77;56.08;100843.56;4953903;28;123355;-72
2021/08/01 01:05:57;;;;;;;11.60;8.20;;;;;;;18.77;56.26;100843.56;4955416;28;123102;-72
2021/08/01 01:08:37;;;;;;;9.68;7.32;;;;;;;18.75;56.17;100840.16;4924359;28;113381;-72
2021/08/01 01:11:37;;;;;;;11.05;7.88;;;;;;;18.73;56.46;100839.44;4948242;28;113878;-72
2021/08/01 01:14:06;;;;;;;;;;;;;;;18.70;55.83;100831.59;4943157;28;123381;-72
2021/08/01 01:16:44;;;;;;;9.13;6.65;;;;;;;18.72;56.19;100840.38;4946512;28;123949;-71
2021/08/01 01:19:39;;;;;;;9.70;7.25;;;;;;;18.70;56.11;100833.44;4939003;28;114499;-72
2021/08/01 01:22:43;;;;;;;9.20;7.13;;;;;;;18.69;56.35;100832.59;4939585;28;114390;-72
2021/08/01 01:26:00;;;;;;;9.07;6.75;;;;;;;18.67;56.35;100837.25;4935727;28;124510;-72
2021/08/01 01:28:56;;;;;;;10.85;7.03;;;;;;;18.67;56.62;100826.50;4937636;28;123757;-71
2021/08/01 01:31:41;;;;;;;;;;;;;;;18.64;55.98;100821.38;4959118;28;115292;-72
2021/08/01 01:34:16;;;;;;;10.03;6.27;;;;;;;18.66;56.02;100824.78;4944841;28;114976;-72
2021/08/01 01:36:46;;;;;;;10.25;6.82;;;;;;;18.63;56.24;100825.06;4940075;28;126671;-71
2021/08/01 01:39:16;;;;;;;8.32;6.32;;;;;;;18.62;56.54;100817.97;4940231;28;123589;-72
2021/08/01 01:42:00;;;;;;;9.95;6.85;;;;;;;18.61;56.75;100824.28;4935726;28;113428;-72
2021/08/01 01:44:44;;;;;;;10.50;7.43;;;;;;;18.60;56.88;100819.91;4947199;28;113746;-72
2021/08/01 01:47:15;;;;;;;9.63;6.80;;;;;;;18.60;56.76;100823.44;4942059;28;124289;-72
2021/08/01 01:49:43;;;;;;;9.02;6.22;;;;;;;18.59;56.86;100815.50;4944492;28;123584;-72
2021/08/01 01:52:16;;;;;;;10.85;7.22;;;;;;;18.60;57.02;100814.56;4941807;28;113964;-72
2021/08/01 01:54:53;;;;;;;7.93;6.18;;;;;;;18.61;57.08;100805.50;4945406;28;113393;-71
2021/08/01 01:57:20;;;;;;;9.32;6.82;;;;;;;18.61;57.15;100810.88;4942567;28;124341;-72
2021/08/01 01:59:48;;;;;;;9.05;6.78;;;;;;;18.61;57.11;100805.50;4938655;28;124817;-71
2021/08/01 02:02:15;;;;;;;8.60;6.57;;;;;;;18.59;57.20;100796.75;4955221;28;113628;-72
2021/08/01 02:04:48;;;;;;;8.65;6.30;;;;;;;18.60;57.28;100798.47;4958103;28;112211;-72
2021/08/01 02:07:37;;;;;;;9.20;6.47;;;;;;;18.58;57.25;100795.88;4940534;28;124951;-72
2021/08/01 02:10:40;;;;;;;10.63;6.88;;;;;;;18.57;57.13;100793.31;4946757;28;123546;-71
2021/08/01 02:13:08;;;;;;;9.48;6.72;;;;;;;18.55;57.42;100795.28;4942657;28;113480;-71
2021/08/01 02:15:51;;;;;;;9.15;6.50;;;;;;;18.54;57.51;100802.47;4944910;28;114181;-72
2021/08/01 02:18:36;;;;;;;9.52;6.68;;;;;;;18.54;57.55;100804.31;4930566;28;123666;-71
2021/08/01 02:21:06;;;;;;;10.30;6.60;;;;;;;18.55;57.44;100795.28;4949355;28;123043;-71
2021/08/01 02:23:39;;;;;;;9.63;6.70;;;;;;;18.55;57.65;100803.31;4941723;28;114828;-71
2021/08/01 02:26:11;;;;;;;10.40;6.90;;;;;;;18.55;57.67;100806.84;4947590;28;113837;-72
2021/08/01 02:28:40;;;;;;;9.05;6.75;;;;;;;18.54;57.95;100804.31;4944430;28;123893;-71
2021/08/01 02:31:10;;;;;;;9.63;6.80;;;;;;;18.54;57.73;100810.53;4958989;28;123182;-71
2021/08/01 02:33:38;;;;;;;9.05;6.80;;;;;;;18.54;57.98;100804.31;4940795;28;113807;-71
2021/08/01 02:36:14;;;;;;;9.77;6.35;;;;;;;18.51;57.71;100805.38;4947050;28;114108;-71
2021/08/01 02:38:45;;;;;;;9.35;6.63;;;;;;;18.52;57.82;100806.28;4947673;28;123052;-72
2021/08/01 02:41:37;;;;;;;9.45;6.10;;;;;;;18.51;57.80;100804.56;4942543;28;124331;-72
2021/08/01 02:44:13;;;;;;;8.25;6.40;;;;;;;18.51;57.84;100817.97;4927225;28;113754;-73
2021/08/01 02:46:42;;;;;;;9.13;6.82;;;;;;;18.51;57.92;100820.66;4946943;28;113278;-72
2021/08/01 02:49:19;;;;;;;8.10;6.50;;;;;;;18.49;58.09;100813.56;4944656;28;123378;-72
2021/08/01 02:51:51;;;;;;;8.18;6.53;;;;;;;18.48;58.13;100811.88;4946298;28;123382;-72
2021/08/01 02:54:23;;;;;;;10.10;6.65;;;;;;;18.47;58.03;100804.78;4947624;28;113279;-72
2021/08/01 02:56:56;;;;;;;9.35;6.90;;;;;;;18.46;58.33;100811.13;4942633;28;113236;-72
2021/08/01 02:59:25;;;;;;;8.80;6.57;;;;;;;18.46;58.20;100808.44;4936899;28;123672;-72
2021/08/01 03:01:55;;;;;;;11.40;7.20;;;;;;;18.44;58.43;100807.72;4949637;28;123317;-72
2021/08/01 03:04:26;;;;;;;9.50;6.88;;;;;;;18.45;58.60;100804.06;4932915;28;113803;-71
2021/08/01 03:06:54;;;;;;;10.05;6.65;;;;;;;18.45;58.54;100806.72;4944077;28;112550;-72
2021/08/01 03:09:21;;;;;;;9.38;6.55;;;;;;;18.45;58.54;100801.38;4946284;28;122941;-73
2021/08/01 03:11:49;;;;;;;9.23;6.70;;;;;;;18.46;58.67;100805.78;4940504;28;124650;-73
2021/08/01 03:14:16;;;;;;;11.05;6.97;;;;;;;18.47;58.59;100810.16;4940378;28;115470;-72
2021/08/01 03:16:43;;;;;;;11.63;6.82;;;;;;;18.45;58.56;100814.78;4939300;28;115060;-72
2021/08/01 03:19:13;;;;;;;10.55;6.97;;;;;;;18.45;58.73;100817.47;4945040;28;123818;-72
2021/08/01 03:21:42;;;;;;;10.43;7.05;;;;;;;18.44;58.74;100815.78;4939350;28;124616;-73
2021/08/01 03:24:22;;;;;;;10.00;6.88;;;;;;;18.45;58.75;100812.09;4945036;28;113385;-73
2021/08/01 03:26:52;;;;;;;8.95;6.80;;;;;;;18.49;58.79;100813.56;4937834;28;113206;-73
2021/08/01 03:29:20;;;;;;;9.90;7.20;;;;;;;18.49;58.83;100813.56;4948648;28;123729;-73
2021/08/01 03:31:47;;;;;;;10.18;6.72;;;;;;;18.49;58.73;100818.06;4950255;28;123728;-73
2021/08/01 03:34:14;;;;;;;10.30;6.85;;;;;;;18.49;58.91;100813.56;4949815;28;113547;-73
2021/08/01 03:36:41;;;;;;;12.73;7.30;;;;;;;18.51;58.99;100820.66;4936272;28;113457;-73
2021/08/01 03:39:17;;;;;;;13.32;7.47;;;;;;;18.53;58.92;100818.69;4938937;28;124464;-73
2021/08/01 03:41:46;;;;;;;11.60;7.38;;;;;;;18.52;59.00;100807.13;4936097;28;124668;-73
2021/08/01 03:44:21;;;;;;;10.93;6.80;;;;;;;18.54;59.17;100815.88;4934207;28;113610;-73
2021/08/01 03:46:48;;;;;;;11.40;7.50;;;;;;;18.55;59.26;100816.75;4951094;28;113875;-74
2021/08/01 03:49:15;;;;;;;10.85;7.68;;;;;;;18.57;59.08;100814.78;4936618;28;124569;-74
2021/08/01 03:51:42;;;;;;;10.50;7.72;;;;;;;18.58;59.17;100811.13;4939654;28;123784;-73
2021/08/01 03:54:09;;;;;;;11.95;7.75;;;;;;;18.59;59.19;100810.16;4938810;28;114082;-73
2021/08/01 03:56:40;;;;;;;11.57;7.10;;;;;;;18.60;59.15;100803.81;4954247;28;113280;-73
2021/08/01 03:59:08;;;;;;;11.82;7.03;;;;;;;18.62;59.27;100817.97;4938510;28;124111;-73
2021/08/01 04:01:36;;;;;;;12.30;7.68;;;;;;;18.64;59.28;100810.66;4933406;28;123750;-73
2021/08/01 04:04:03;;;;;;;11.25;7.43;;;;;;;18.66;59.28;100820.25;4922192;28;114735;-73
2021/08/01 04:06:32;;;;;;;11.80;7.97;;;;;;;18.68;59.36;100822.84;4950153;28;114871;-73
2021/08/01 04:09:00;;;;;;;12.35;7.75;;;;;;;18.68;59.25;100817.47;4938038;28;124247;-72
2021/08/01 04:11:27;;;;;;;12.10;8.00;;;;;;;18.70;59.36;100820.03;4913826;28;122947;-72
2021/08/01 04:13:54;;;;;;;11.52;7.40;;;;;;;18.70;59.32;100818.19;4941913;28;114581;-73
2021/08/01 04:16:21;;;;;;;12.25;7.57;;;;;;;18.70;59.30;100818.19;4955722;28;114105;-72
2021/08/01 04:18:49;;;;;;;12.77;7.35;;;;;;;18.71;59.47;100817.22;4934484;28;123431;-73
2021/08/01 04:21:16;;;;;;;11.55;7.53;;;;;;;18.70;59.23;100815.50;4955299;28;122934;-72
2021/08/01 04:23:43;;;;;;;13.57;8.40;;;;;;;18.69;59.58;100819.19;4929582;28;114051;-73
2021/08/01 04:26:10;;;;;;;11.40;7.55;;;;;;;18.68;59.50;100806.72;4939009;28;113725;-73
2021/08/01 04:28:37;;;;;;;12.25;7.35;;;;;;;18.68;59.50;100812.09;4939109;28;123891;-72
2021/08/01 04:31:04;;;;;;;13.48;7.43;;;;;;;18.67;59.44;100815.78;4943994;28;124330;-72
2021/08/01 04:33:32;;;;;;;11.57;7.43;;;;;;;18.66;59.67;100814.06;4939527;28;113616;-73
2021/08/01 04:35:59;;;;;;;12.93;7.05;;;;;;;18.65;59.60;100807.00;4947761;28;114076;-73
2021/08/01 04:38:26;;;;;;;12.20;7.43;;;;;;;18.63;59.74;100808.97;4944045;28;126861;-73
2021/08/01 04:40:53;;;;;;;10.93;6.80;;;;;;;18.65;59.49;100823.94;4939867;28;123584;-72
2021/08/01 04:43:20;;;;;;;10.02;6.80;;;;;;;18.66;59.58;100832.84;4931453;28;114435;-72
2021/08/01 04:45:47;;;;;;;11.32;7.05;;;;;;;18.67;59.72;100826.50;4938585;28;114395;-73
2021/08/01 04:48:14;;;;;;;10.70;7.40;;;;;;;18.67;59.77;100821.16;4945183;28;124662;-72
2021/08/01 04:50:41;;;;;;;12.68;7.40;;;;;;;18.69;59.83;100813.81;4941126;28;123838;-73
2021/08/01 04:53:08;;;;;;;13.02;7.32;;;;;;;18.70;59.79;100810.16;4959946;28;114089;-72
2021/08/01 04:55:35;;;;;;;11.05;7.10;;;;;;;18.70;59.82;100810.16;4938908;28;114918;-72
2021/08/01 04:58:03;;;;;;;11.93;7.50;;;;;;;18.70;59.64;100810.16;4942516;28;123854;-73
2021/08/01 05:00:30;;;;;;;13.50;7.70;;;;;;;18.70;59.77;100812.84;4938042;28;123757;-74
2021/08/01 05:03:02;;;;;;;13.00;7.20;;;;;;;18.70;59.91;100810.16;4944087;28;114514;-72
2021/08/01 05:05:38;;;;;;;14.13;7.43;;;;;;;18.73;59.93;100804.53;4933808;28;113547;-72
2021/08/01 05:08:06;;;;;;;15.77;8.38;;;;;;;18.75;59.76;100812.47;4940913;28;124873;-72
2021/08/01 05:10:33;;;;;;;14.48;7.93;;;;;;;18.76;60.08;100809.69;4941349;28;124214;-72
2021/08/01 05:13:05;;;;;;;13.82;8.15;;;;;;;18.79;60.31;100809.41;4942788;28;114189;-73
2021/08/01 05:15:32;;;;;;;20.13;9.50;;;;;;;18.84;60.14;100811.78;4946294;28;114303;-72
2021/08/01 05:17:59;;;;;;;22.02;10.80;;;;;;;18.85;60.14;100819.72;4947162;28;123672;-72
2021/08/01 05:20:26;;;;;;;23.77;10.85;;;;;;;18.85;60.19;100814.34;4948033;28;123749;-72
2021/08/01 05:22:53;;;;;;;27.08;12.25;;;;;;;18.88;60.20;100815.06;4945139;28;114023;-72
2021/08/01 05:25:20;;;;;;;23.88;12.18;;;;;;;18.91;60.24;100812.13;4947891;28;114165;-73
2021/08/01 05:27:47;;;;;;;23.15;11.77;;;;;;;18.92;60.09;100813.84;4938076;28;122912;-73
2021/08/01 05:30:14;;;;;;;27.08;12.63;;;;;;;18.96;60.31;100809.91;4943832;28;123842;-73
2021/08/01 05:32:41;;;;;;;27.35;12.00;;;;;;;18.99;60.14;100810.53;4947573;28;114892;-72
2021/08/01 05:35:08;;;;;;;21.42;11.77;;;;;;;19.01;60.27;100807.72;4939449;28;114433;-73
2021/08/01 05:37:36;;;;;;;23.85;11.50;;;;;;;19.04;60.17;100812.81;4941467;28;123487;-73
2021/08/01 05:40:03;;;;;;;25.50;12.02;;;;;;;19.05;60.16;100815.41;4943787;28;124525;-73
2021/08/01 05:42:32;;;;;;;29.20;12.75;;;;;;;19.04;60.20;100810.13;4939229;28;114052;-73
2021/08/01 05:45:00;;;;;;;29.02;13.00;;;;;;;19.06;60.41;100818.91;4923990;28;115263;-75
2021/08/01 05:47:27;;;;;;;29.40;13.18;;;;;;;19.09;60.30;100809.78;4936242;28;123241;-74
2021/08/01 05:49:54;;;;;;;29.48;13.40;;;;;;;19.11;60.28;100813.19;4937517;28;124889;-73
2021/08/01 05:52:22;;;;;;;33.05;13.75;;;;;;;19.12;60.32;100810.38;4939046;28;113274;-74
2021/08/01 05:54:53;;;;;;;29.63;13.70;;;;;;;19.14;60.36;100819.16;4942805;28;113148;-73
2021/08/01 05:57:20;;;;;;;32.20;13.95;;;;;;;19.15;60.25;100810.13;4937615;28;122452;-74
2021/08/01 05:59:47;;;;;;;31.10;13.93;;;;;;;19.14;60.19;100807.59;4928884;28;123396;-73
2021/08/01 06:02:14;;;;;;;29.85;13.57;;;;;;;19.15;60.42;100810.13;4922964;28;116072;-74
2021/08/01 06:04:41;;;;;;;30.30;13.93;;;;;;;19.18;60.40;100815.25;4945235;28;113784;-75
2021/08/01 06:07:08;;;;;;;34.75;14.00;;;;;;;19.20;60.14;100813.28;4936408;28;123655;-74
2021/08/01 06:09:39;;;;;;;30.95;14.25;;;;;;;19.22;60.36;100815.84;4939829;28;123108;-73
2021/08/01 06:12:10;;;;;;;32.58;13.77;;;;;;;19.23;60.54;100818.41;4941848;28;113468;-73
2021/08/01 06:14:38;;;;;;;34.45;14.13;;;;;;;19.31;60.27;100814.22;4938958;28;113854;-74
2021/08/01 06:17:05;;;;;;;29.15;14.07;;;;;;;19.34;60.21;100819.34;4942243;28;123809;-75
2021/08/01 06:19:32;;;;;;;26.92;13.38;;;;;;;19.37;60.46;100816.44;4954454;28;123250;-73
2021/08/01 06:21:59;;;;;;;25.88;14.38;;;;;;;19.37;60.32;100819.97;4951857;28;113589;-74
2021/08/01 06:24:26;;;;;;;30.67;13.80;;;;;;;19.40;60.17;100813.47;4952602;28;114449;-73
2021/08/01 06:26:53;;;;;;;28.48;14.27;;;;;;;19.43;60.09;100813.22;4947307;28;124814;-74
2021/08/01 06:29:20;;;;;;;28.98;13.57;;;;;;;19.45;60.11;100816.63;4951287;28;123437;-74
2021/08/01 06:31:48;;;;;;;24.60;12.77;;;;;;;19.49;60.10;100823.44;4951219;28;115407;-74
2021/08/01 06:34:15;;;;;;;22.63;11.73;;;;;;;19.51;60.15;100832.22;4949303;28;114669;-75
2021/08/01 06:36:42;;;;;;;24.48;12.65;;;;;;;19.52;60.07;100822.38;4952653;28;123551;-73
2021/08/01 06:39:09;;;;;;;21.58;11.65;;;;;;;19.53;59.88;100827.59;4938549;28;123928;-73
2021/08/01 06:41:36;;;;;;;22.25;11.85;;;;;;;19.53;59.82;100824.91;4951713;28;114232;-73
2021/08/01 06:44:03;;;;;;;21.05;11.80;;;;;;;19.54;60.06;100832.00;4937225;28;112871;-73
2021/08/01 06:46:31;;;;;;;21.52;11.63;;;;;;;19.57;59.88;100836.25;4952496;28;124356;-74
2021/08/01 06:48:58;;;;;;;18.95;10.57;;;;;;;19.60;59.73;100830.63;4951153;28;124630;-74
2021/08/01 06:51:25;;;;;;;18.33;10.85;;;;;;;19.61;59.76;100835.03;4936359;28;112536;-73
2021/08/01 06:53:52;;;;;;;16.20;10.25;;;;;;;19.58;59.70;100833.44;4944968;28;113607;-74
2021/08/01 06:56:20;;;;;;;15.20;10.23;;;;;;;19.60;59.48;100847.59;4952061;28;125961;-72
2021/08/01 06:58:47;;;;;;;14.52;9.45;;;;;;;19.59;59.61;100843.22;4952568;28;124613;-72
2021/08/01 07:01:14;;;;;;;17.08;9.85;;;;;;;19.57;59.44;100842.50;4950409;28;114042;-73
2021/08/01 07:03:41;;;;;;;15.73;10.20;;;;;;;19.57;59.49;100842.50;4951684;28;113825;-73
2021/08/01 07:06:10;;;;;;;18.60;9.70;;;;;;;19.61;59.46;100849.31;4949932;28;123485;-73
2021/08/01 07:08:37;;;;;;;15.20;9.75;;;;;;;19.62;59.36;100851.00;4950065;28;122928;-73
2021/08/01 07:11:04;;;;;;;16.23;9.52;;;;;;;19.63;59.48;100855.41;4934526;28;113244;-73
2021/08/01 07:13:31;;;;;;;15.85;9.98;;;;;;;19.65;59.20;100856.13;4953121;28;114559;-75
2021/08/01 07:16:03;;;;;;;16.27;10.10;;;;;;;19.69;59.36;100853.19;4942225;28;125153;-74
2021/08/01 07:18:31;;;;;;;16.85;9.40;;;;;;;19.70;59.38;100854.88;4954034;28;124418;-73
2021/08/01 07:20:59;;;;;;;13.63;8.98;;;;;;;19.70;59.19;100846.81;4953598;28;113897;-73
2021/08/01 07:23:27;;;;;;;15.25;9.50;;;;;;;19.71;59.08;100848.56;4946204;28;115368;-74
2021/08/01 07:25:54;;;;;;;14.82;8.90;;;;;;;19.72;59.13;100843.09;4950383;28;124493;-75
2021/08/01 07:28:21;;;;;;;15.98;9.50;;;;;;;19.73;59.13;100852.00;4950496;28;123885;-74
2021/08/01 07:30:51;;;;;;;16.33;9.65;;;;;;;19.75;59.19;100845.50;4950755;28;114802;-74
2021/08/01 07:33:23;;;;;;;17.70;9.73;;;;;;;19.78;59.04;100844.41;4950339;28;114231;-73
2021/08/01 07:35:50;;;;;;;13.48;9.00;;;;;;;19.81;59.00;100852.19;4950564;28;124799;-74
2021/08/01 07:38:17;;;;;;;13.30;9.00;;;;;;;19.83;59.10;100852.91;4950333;28;121740;-73
2021/08/01 07:40:44;;;;;;;18.00;9.40;;;;;;;19.87;59.17;100854.34;4950032;28;114097;-73
2021/08/01 07:43:11;;;;;;;16.92;9.63;;;;;;;19.90;59.07;100854.09;4949099;28;113133;-74
2021/08/01 07:45:39;;;;;;;14.38;9.57;;;;;;;19.97;59.23;100849.94;4936680;28;124495;-74
2021/08/01 07:48:06;;;;;;;14.88;9.80;;;;;;;20.02;58.94;100853.09;4950017;28;123869;-73
2021/08/01 07:50:33;;;;;;;14.55;9.13;;;;;;;20.08;58.92;100861.59;4950836;28;114514;-73
2021/08/01 07:53:00;;;;;;;16.60;10.02;;;;;;;20.12;59.12;100868.44;4934415;28;112864;-73
2021/08/01 07:55:27;;;;;;;14.95;10.23;;;;;;;20.16;58.95;100861.81;4951230;28;124726;-74
2021/08/01 07:57:55;;;;;;;15.52;10.20;;;;;;;20.20;58.99;100863.25;4950850;28;123852;-74
2021/08/01 08:00:23;;;;;;;17.25;9.70;;;;;;;20.25;58.91;100861.03;4951886;28;114081;-75
2021/08/01 08:02:50;;;;;;;14.40;9.35;;;;;;;20.29;58.72;100862.47;4950277;28;113992;-74
2021/08/01 08:05:17;;;;;;;16.35;9.82;;;;;;;20.30;58.48;100866.84;4946886;28;123619;-72
2021/08/01 08:07:44;;;;;;;15.23;9.52;;;;;;;20.28;58.45;100863.44;4947207;28;124589;-76
2021/08/01 08:10:12;;;;;;;17.60;9.40;;;;;;;20.30;58.45;100866.00;4949318;28;115146;-75
2021/08/01 08:12:39;;;;;;;14.85;8.93;;;;;;;20.29;58.30;100859.78;4932770;28;113877;-74
2021/08/01 08:15:08;;;;;;;14.18;8.55;;;;;;;20.30;58.43;100866.84;4948998;28;124334;-74
2021/08/01 08:17:36;;;;;;;20.90;9.90;;;;;;;20.30;58.37;100866.00;4950258;28;123880;-75
2021/08/01 08:20:06;;;;;;;16.08;9.32;;;;;;;20.30;58.34;100861.47;4945741;28;113581;-76
2021/08/01 08:22:33;;;;;;;18.38;8.93;;;;;;;20.31;58.33;100856.97;4937051;28;113767;-73
2021/08/01 08:25:03;;;;;;;15.90;9.25;;;;;;;20.33;58.09;100855.81;4950572;28;123816;-73
2021/08/01 08:27:30;;;;;;;15.10;9.55;;;;;;;20.34;58.26;100865.63;4944695;28;124231;-74
2021/08/01 08:29:57;;;;;;;15.10;8.98;;;;;;;20.36;58.03;100866.34;4944732;28;114016;-75
2021/08/01 08:32:24;;;;;;;12.82;8.55;;;;;;;20.39;58.14;100868.75;4950689;28;114070;-74
2021/08/01 08:34:51;;;;;;;14.52;8.35;;;;;;;20.41;57.99;100874.00;4950495;28;124781;-75
2021/08/01 08:37:18;;;;;;;16.15;8.80;;;;;;;20.43;57.99;100872.88;4950668;28;123192;-75
2021/08/01 08:39:46;;;;;;;16.35;8.70;;;;;;;20.47;57.97;100872.63;4950509;28;113623;-74
2021/08/01 08:42:15;;;;;;;15.43;8.98;;;;;;;20.49;57.92;100870.63;4949651;28;114067;-75
2021/08/01 08:44:43;;;;;;;13.90;9.10;;;;;;;20.50;57.88;100872.34;4951210;28;123602;-73
2021/08/01 08:47:16;;;;;;;16.73;8.35;;;;;;;20.50;57.77;100867.81;4949146;28;122141;-73
2021/08/01 08:49:46;;;;;;;13.70;9.10;;;;;;;20.54;57.85;100873.78;4950140;28;114053;-74
2021/08/01 08:52:13;;;;;;;16.83;8.95;;;;;;;20.59;57.78;100871.56;4950221;28;115964;-74
2021/08/01 08:55:02;;;;;;;15.32;9.25;;;;;;;20.63;57.99;100875.72;4931730;28;124732;-74
2021/08/01 08:57:43;;;;;;;14.57;9.02;;;;;;;20.67;57.69;100879.84;4945305;28;124707;-73
2021/08/01 09:00:13;;;;;;;14.38;8.52;;;;;;;20.71;57.99;100875.88;4949722;28;114314;-74
2021/08/01 09:02:40;;;;;;;13.73;8.27;;;;;;;20.75;57.76;100871.94;4937091;28;115661;-74
2021/08/01 09:05:09;;;;;;;13.40;8.13;;;;;;;20.78;57.77;100871.69;4951857;28;123990;-73
2021/08/01 09:07:39;;;;;;;14.63;8.80;;;;;;;20.82;57.67;100871.41;4951265;28;124611;-74
2021/08/01 09:10:08;;;;;;;17.02;8.32;;;;;;;20.82;57.52;100871.41;4954552;28;112689;-74
2021/08/01 09:12:47;;;;;;;12.60;8.10;;;;;;;20.82;57.53;100871.41;4950251;28;112031;-73
2021/08/01 09:15:27;;;;;;;14.15;8.40;;;;;;;20.83;57.67;100883.88;4938464;28;125097;-72
2021/08/01 09:17:56;;;;;;;15.38;8.65;;;;;;;20.86;57.58;100878.22;4953605;28;124841;-72
2021/08/01 09:20:30;;;;;;;16.52;8.95;;;;;;;20.90;57.61;100885.03;4941277;28;114507;-73
2021/08/01 09:23:00;;;;;;;15.10;9.13;;;;;;;20.95;57.62;100890.88;4948447;28;114115;-75
2021/08/01 09:25:28;;;;;;;13.98;9.25;;;;;;;21.00;57.44;100896.69;4949596;28;125600;-74
2021/08/01 09:28:04;;;;;;;14.70;8.15;;;;;;;21.02;57.43;100894.75;4933818;28;123044;-74
2021/08/01 09:30:57;;;;;;;15.32;8.35;;;;;;;21.03;57.25;100895.59;4938113;28;114321;-74
2021/08/01 09:33:33;;;;;;;16.77;9.25;;;;;;;21.02;57.19;100902.84;4942496;28;113949;-73
2021/08/01 09:36:12;;;;;;;16.02;9.55;;;;;;;21.02;57.25;100889.38;4945519;28;124672;-75
2021/08/01 09:38:54;;;;;;;17.20;10.27;;;;;;;21.02;57.25;100894.75;4943703;28;123467;-73
2021/08/01 09:41:25;;;;;;;18.30;9.45;;;;;;;21.03;57.36;100891.06;4951163;28;114319;-73
2021/08/01 09:43:55;;;;;;;18.08;9.48;;;;;;;21.07;57.29;100887.09;4952708;28;113526;-73
2021/08/01 09:46:49;;;;;;;17.17;9.52;;;;;;;21.11;57.46;100883.13;4948111;28;124180;-74
2021/08/01 09:49:18;;;;;;;17.02;9.93;;;;;;;21.24;57.54;100887.44;4937460;28;124306;-74
2021/08/01 09:51:50;;;;;;;18.55;9.77;;;;;;;21.39;57.77;100888.75;4951974;28;114905;-74
2021/08/01 09:54:19;;;;;;;17.02;10.20;;;;;;;21.56;57.60;100888.09;4951205;28;114053;-74
2021/08/01 09:57:00;;;;;;;17.60;10.82;;;;;;;21.73;57.60;100885.72;4950975;28;123430;-72
2021/08/01 09:59:30;;;;;;;17.38;10.30;;;;;;;21.93;57.52;100884.72;4936758;28;123961;-74
2021/08/01 10:02:02;;;;;;;16.52;9.48;;;;;;;22.12;57.58;100883.03;4943165;28;114496;-73
2021/08/01 10:04:42;;;;;;;18.45;10.50;;;;;;;22.34;57.34;100880.03;4936050;28;113253;-76
2021/08/01 10:07:12;;;;;;;19.10;10.07;;;;;;;22.58;57.02;100878.69;4950510;28;122329;-75
2021/08/01 10:09:41;;;;;;;17.35;10.20;;;;;;;22.81;56.59;100883.75;4947245;28;123481;-75
2021/08/01 10:12:09;;;;;;;15.52;9.45;;;;;;;22.97;56.09;100888.53;4944670;28;114277;-73
2021/08/01 10:14:37;;;;;;;16.48;9.75;;;;;;;23.09;55.90;100877.41;4946243;28;113762;-74
2021/08/01 10:17:05;;;;;;;15.40;9.50;;;;;;;23.22;55.49;100876.19;4940569;28;123896;-74
2021/08/01 10:19:34;;;;;;;16.67;9.93;;;;;;;23.31;55.24;100880.69;4946158;28;124431;-75
2021/08/01 10:22:03;;;;;;;13.93;8.95;;;;;;;23.40;55.04;100882.50;4944283;28;114177;-74
2021/08/01 10:24:37;;;;;;;15.05;9.48;;;;;;;23.45;54.71;100882.91;4941201;28;114735;-75
2021/08/01 10:27:06;;;;;;;17.02;9.85;;;;;;;23.47;54.37;100880.88;4932386;28;124847;-75
2021/08/01 10:29:51;;;;;;;16.60;9.63;;;;;;;23.49;54.11;100878.03;4942147;28;123415;-74
2021/08/01 10:32:21;;;;;;;15.27;9.77;;;;;;;23.48;54.05;100871.75;4938019;28;114452;-74
2021/08/01 10:35:14;;;;;;;17.27;9.73;;;;;;;23.49;54.23;100878.88;4941734;28;114203;-74
2021/08/01 10:37:43;;;;;;;16.23;9.88;;;;;;;23.57;54.04;100871.88;4937547;28;124257;-73
2021/08/01 10:40:18;;;;;;;16.75;10.35;;;;;;;23.61;53.95;100868.69;4938993;28;122735;-74
2021/08/01 10:42:50;;;;;;;16.33;9.60;;;;;;;23.68;53.92;100871.63;4953953;28;115634;-73
2021/08/01 10:45:19;;;;;;;14.88;9.38;;;;;;;23.76;53.94;100869.00;4938701;28;114045;-75
2021/08/01 10:47:51;;;;;;;16.00;9.50;;;;;;;23.84;53.72;100869.09;4934000;28;123028;-79
2021/08/01 10:50:23;;;;;;;14.52;8.80;;;;;;;23.96;53.91;100868.84;4938673;28;122702;-75
2021/08/01 10:53:19;;;;;;;14.77;8.60;;;;;;;24.04;53.18;100860.84;4938997;28;114512;-74
2021/08/01 10:55:47;;;;;;;15.13;8.82;;;;;;;24.13;53.56;100859.91;4936199;28;115623;-75
2021/08/01 10:58:15;;;;;;;14.80;8.85;;;;;;;24.22;52.87;100864.38;4942406;28;124788;-75
2021/08/01 11:00:55;;;;;;;19.13;10.07;;;;;;;24.24;52.83;100862.34;4938683;28;123074;-74
2021/08/01 11:03:26;;;;;;;16.23;9.95;;;;;;;24.25;52.67;100858.63;4935942;28;113654;-74
2021/08/01 11:05:53;;;;;;;16.90;10.27;;;;;;;24.25;52.37;100858.63;4944005;28;114498;-74
2021/08/01 11:08:21;;;;;;;16.67;10.10;;;;;;;24.23;52.27;100859.78;4944815;28;123852;-72
2021/08/01 11:11:14;;;;;;;14.98;9.73;;;;;;;24.22;52.46;100858.94;4936366;28;124760;-74
2021/08/01 11:13:48;;;;;;;15.32;9.23;;;;;;;24.27;52.79;100856.59;4941899;28;113300;-74
2021/08/01 11:16:30;;;;;;;14.60;9.43;;;;;;;24.33;52.54;100848.84;4942417;28;116836;-74
2021/08/01 11:18:58;;;;;;;12.15;8.60;;;;;;;24.39;52.55;100859.03;4937942;28;124516;-75
2021/08/01 11:21:39;;;;;;;14.88;9.25;;;;;;;24.45;52.66;100853.84;4943570;28;123608;-75
2021/08/01 11:24:07;;;;;;;16.15;9.57;;;;;;;24.52;52.34;100853.25;4935158;28;113574;-74
2021/08/01 11:26:36;;;;;;;16.92;10.32;;;;;;;24.55;51.97;100853.78;4938854;28;113745;-75
2021/08/01 11:29:05;;;;;;;16.17;9.60;;;;;;;24.61;52.54;100847.72;4942601;28;122996;-73